createdAt,value
2023-03-17T00:01:13.411Z,17.20
2023-03-17T00:05:04.836Z,17.20
2023-03-17T00:08:53.878Z,17.20
2023-03-17T00:12:39.981Z,17.20
2023-03-17T00:16:29.384Z,17.20
2023-03-17T00:20:29.297Z,17.10
2023-03-17T00:24:16.844Z,17.20
2023-03-17T00:28:10.181Z,17.20
2023-03-17T00:32:01.004Z,17.20
2023-03-17T00:36:10.033Z,17.10
2023-03-17T00:39:56.657Z,17.20
2023-03-17T00:43:59.336Z,17.10
2023-03-17T00:47:53.571Z,17.20
2023-03-17T00:51:39.645Z,17.20
2023-03-17T00:55:26.061Z,17.20
2023-03-17T00:59:39.342Z,17.10
2023-03-17T01:03:28.797Z,17.20
2023-03-17T01:07:20.685Z,17.20
2023-03-17T01:11:22.357Z,17.20
2023-03-17T01:15:09.112Z,17.20
2023-03-17T01:18:58.210Z,17.20
2023-03-17T01:22:47.776Z,17.20
2023-03-17T01:26:44.534Z,17.20
2023-03-17T01:30:36.292Z,17.20
2023-03-17T01:34:30.312Z,17.10
2023-03-17T01:38:19.671Z,17.10
2023-03-17T01:42:09.315Z,17.10
2023-03-17T01:46:19.350Z,17.20
2023-03-17T01:50:17.195Z,17.10
2023-03-17T01:54:27.127Z,17.10
2023-03-17T01:58:19.928Z,17.10
2023-03-17T02:02:10.858Z,17.10
2023-03-17T02:06:06.401Z,17.10
2023-03-17T02:09:54.689Z,17.10
2023-03-17T02:13:44.016Z,17.10
2023-03-17T02:17:34.249Z,17.20
2023-03-17T02:21:41.450Z,17.10
2023-03-17T02:25:29.164Z,17.10
2023-03-17T02:29:15.860Z,17.10
2023-03-17T02:33:05.780Z,17.10
2023-03-17T02:36:55.147Z,17.10
2023-03-17T02:40:41.244Z,17.10
2023-03-17T02:44:34.854Z,17.10
2023-03-17T02:48:26.679Z,17.10
2023-03-17T02:52:18.665Z,17.10
2023-03-17T02:56:11.412Z,17.10
2023-03-17T02:59:57.593Z,17.10
2023-03-17T03:03:53.881Z,17.10
2023-03-17T03:07:46.239Z,17.10
2023-03-17T03:11:35.906Z,17.10
2023-03-17T03:15:28.016Z,17.10
2023-03-17T03:19:16.720Z,17.10
2023-03-17T03:23:09.117Z,17.10
2023-03-17T03:26:58.036Z,17.10
2023-03-17T03:30:47.899Z,17.10
2023-03-17T03:34:33.969Z,17.10
2023-03-17T03:38:26.893Z,17.10
2023-03-17T03:42:16.910Z,17.10
2023-03-17T03:46:03.183Z,17.10
2023-03-17T03:49:57.723Z,17.10
2023-03-17T03:53:46.725Z,17.10
2023-03-17T03:57:33.010Z,17.10
2023-03-17T04:01:27.780Z,17.10
2023-03-17T04:05:21.772Z,17.10
2023-03-17T04:09:11.459Z,17.10
2023-03-17T04:13:00.255Z,17.10
2023-03-17T04:16:51.761Z,17.10
2023-03-17T04:20:46.954Z,17.10
2023-03-17T04:24:39.445Z,17.10
2023-03-17T04:28:25.568Z,17.10
2023-03-17T04:32:15.504Z,17.10
2023-03-17T04:36:08.601Z,17.10
2023-03-17T04:40:00.632Z,17.10
2023-03-17T04:43:50.769Z,17.20
2023-03-17T04:47:37.559Z,17.10
2023-03-17T04:51:27.613Z,17.10
2023-03-17T04:55:24.020Z,17.10
2023-03-17T04:59:13.132Z,17.10
2023-03-17T05:03:02.378Z,17.10
2023-03-17T05:06:53.592Z,17.10
2023-03-17T05:10:42.705Z,17.10
2023-03-17T05:14:34.772Z,17.10
2023-03-17T05:18:21.852Z,17.10
2023-03-17T05:22:11.050Z,17.10
2023-03-17T05:26:00.438Z,17.10
2023-03-17T05:29:50.118Z,17.10
2023-03-17T05:33:39.178Z,17.10
2023-03-17T05:37:33.759Z,17.10
2023-03-17T05:41:26.542Z,17.10
2023-03-17T05:45:13.789Z,17.10
2023-03-17T05:48:59.827Z,17.10
2023-03-17T05:52:48.581Z,17.10
2023-03-17T05:56:35.598Z,17.10
2023-03-17T06:00:25.651Z,17.10
2023-03-17T06:04:11.549Z,17.10
2023-03-17T06:08:01.282Z,17.10
2023-03-17T06:11:47.815Z,17.10
2023-03-17T06:15:38.963Z,17.10
2023-03-17T06:19:24.283Z,17.10
2023-03-17T06:23:14.374Z,17.10
2023-03-17T06:27:02.989Z,17.10
2023-03-17T06:30:48.823Z,17.10
2023-03-17T06:34:37.398Z,17.10
2023-03-17T06:38:23.783Z,17.10
2023-03-17T06:42:12.735Z,17.10
2023-03-17T06:45:58.524Z,17.10
2023-03-17T06:49:44.323Z,17.10
2023-03-17T06:53:30.167Z,17.10
2023-03-17T06:57:16.001Z,17.10
2023-03-17T07:01:05.800Z,17.10
2023-03-17T07:04:51.606Z,17.10
2023-03-17T07:08:38.074Z,17.10
2023-03-17T07:12:24.363Z,17.10
2023-03-17T07:16:11.385Z,17.10
2023-03-17T07:20:01.005Z,17.10
2023-03-17T07:23:46.920Z,17.10
2023-03-17T07:27:35.964Z,17.10
2023-03-17T07:31:21.650Z,17.10
2023-03-17T07:35:09.961Z,17.10
2023-03-17T07:38:55.559Z,17.10
2023-03-17T07:42:41.175Z,17.10
2023-03-17T07:46:27.881Z,17.10
2023-03-17T07:50:14.156Z,17.10
2023-03-17T07:54:05.322Z,17.10
2023-03-17T07:57:51.301Z,17.10
2023-03-17T08:01:37.964Z,17.10
2023-03-17T08:05:23.845Z,17.10
2023-03-17T08:09:10.635Z,17.10
2023-03-17T08:12:56.264Z,17.10
2023-03-17T08:16:43.070Z,17.10
2023-03-17T08:20:28.913Z,17.10
2023-03-17T08:24:14.716Z,17.10
2023-03-17T08:28:00.388Z,17.10
2023-03-17T08:31:46.821Z,17.10
2023-03-17T08:35:33.001Z,17.20
2023-03-17T08:39:18.979Z,17.20
2023-03-17T08:43:04.621Z,17.10
2023-03-17T08:46:51.453Z,17.20
2023-03-17T08:50:37.370Z,17.20
2023-03-17T08:54:23.238Z,17.10
2023-03-17T08:58:09.111Z,17.20
2023-03-17T09:01:54.906Z,17.20
2023-03-17T09:05:40.578Z,17.20
2023-03-17T09:09:25.357Z,17.20
2023-03-17T09:13:11.069Z,17.20
2023-03-17T09:16:57.203Z,17.20
2023-03-17T09:20:43.276Z,17.20
2023-03-17T09:24:28.877Z,17.20
2023-03-17T09:28:17.820Z,17.20
2023-03-17T09:32:03.686Z,17.20
2023-03-17T09:35:49.904Z,17.20
2023-03-17T09:39:35.059Z,17.20
2023-03-17T09:43:55.743Z,17.30
2023-03-17T09:47:58.469Z,17.20
2023-03-17T09:51:46.990Z,17.30
2023-03-17T09:55:35.266Z,17.30
2023-03-17T09:59:32.171Z,17.20
2023-03-17T10:03:18.007Z,17.20
2023-03-17T10:07:08.948Z,17.30
2023-03-17T10:11:06.015Z,17.20
2023-03-17T10:15:02.237Z,17.20
2023-03-17T10:18:51.341Z,17.30
2023-03-17T10:23:00.012Z,17.20
2023-03-17T10:26:59.687Z,17.30
2023-03-17T10:30:45.863Z,17.30
2023-03-17T10:34:36.645Z,17.30
2023-03-17T10:38:28.587Z,17.30
2023-03-17T10:42:22.654Z,17.30
2023-03-17T10:46:26.323Z,17.30
2023-03-17T10:50:34.025Z,17.30
2023-03-17T10:54:24.961Z,17.30
2023-03-17T10:58:16.362Z,17.30
2023-03-17T11:02:16.407Z,17.40
2023-03-17T11:06:20.029Z,17.40
2023-03-17T11:10:07.669Z,17.40
2023-03-17T11:13:53.414Z,17.40
2023-03-17T11:18:33.345Z,17.40
2023-03-17T11:22:36.985Z,17.40
2023-03-17T11:26:34.786Z,17.40
2023-03-17T11:30:59.018Z,17.40
2023-03-17T11:35:14.649Z,17.40
2023-03-17T11:39:27.749Z,17.50
2023-03-17T11:43:19.503Z,17.50
2023-03-17T11:47:30.370Z,17.50
2023-03-17T11:51:15.799Z,17.50
2023-03-17T11:55:14.886Z,17.50
2023-03-17T11:59:07.528Z,17.60
2023-03-17T12:03:22.485Z,17.60
2023-03-17T12:07:25.118Z,17.50
2023-03-17T12:11:15.331Z,17.60
2023-03-17T12:15:02.862Z,17.60
2023-03-17T12:19:17.827Z,17.60
2023-03-17T12:23:17.697Z,17.70
2023-03-17T12:27:18.901Z,17.70
2023-03-17T12:31:20.420Z,17.70
2023-03-17T12:35:36.811Z,17.70
2023-03-17T12:39:23.660Z,17.70
2023-03-17T12:43:21.406Z,17.70
2023-03-17T12:47:30.946Z,17.70
2023-03-17T12:51:43.217Z,17.80
2023-03-17T12:55:34.021Z,17.80
2023-03-17T12:59:27.956Z,17.80
2023-03-17T13:03:32.645Z,17.80
2023-03-17T13:07:35.445Z,17.80
2023-03-17T13:11:54.725Z,17.80
2023-03-17T13:15:43.162Z,17.80
2023-03-17T13:19:34.305Z,17.80
2023-03-17T13:23:23.852Z,17.80
2023-03-17T13:27:17.937Z,17.90
2023-03-17T13:31:34.671Z,17.90
2023-03-17T13:35:22.574Z,17.90
2023-03-17T13:39:50.547Z,17.80
2023-03-17T13:43:54.725Z,17.90
2023-03-17T13:47:45.441Z,17.90
2023-03-17T13:51:35.694Z,17.90
2023-03-17T13:55:20.773Z,17.90
2023-03-17T13:59:07.607Z,17.90
2023-03-17T14:03:01.430Z,17.90
2023-03-17T14:06:47.802Z,17.90
2023-03-17T14:10:36.146Z,17.90
2023-03-17T14:14:32.467Z,17.90
2023-03-17T14:18:25.616Z,17.90
2023-03-17T14:22:28.144Z,18.00
2023-03-17T14:26:14.500Z,17.90
2023-03-17T14:30:06.841Z,18.00
2023-03-17T14:34:01.497Z,18.00
2023-03-17T14:37:50.111Z,18.00
2023-03-17T14:41:38.038Z,18.00
2023-03-17T14:46:06.233Z,18.00
2023-03-17T14:49:53.758Z,18.00
2023-03-17T14:53:44.730Z,18.00
2023-03-17T14:57:34.390Z,18.00
2023-03-17T15:01:49.229Z,18.00
2023-03-17T15:05:43.664Z,18.00
2023-03-17T15:09:33.907Z,18.00
2023-03-17T15:13:18.728Z,18.00
2023-03-17T15:17:16.016Z,18.10
2023-03-17T15:21:04.545Z,18.00
2023-03-17T15:25:01.957Z,18.10
2023-03-17T15:28:47.733Z,18.10
2023-03-17T15:32:33.914Z,18.00
2023-03-17T15:36:31.820Z,18.00
2023-03-17T15:40:18.612Z,18.00
2023-03-17T15:44:05.304Z,18.10
2023-03-17T15:47:51.400Z,18.10
2023-03-17T15:51:37.399Z,18.10
2023-03-17T15:55:31.307Z,18.10
2023-03-17T15:59:16.499Z,18.10
2023-03-17T16:03:15.533Z,18.10
2023-03-17T16:07:01.326Z,18.00
2023-03-17T16:10:47.380Z,18.10
2023-03-17T16:14:32.646Z,18.00
2023-03-17T16:18:20.955Z,18.10
2023-03-17T16:22:06.326Z,18.10
2023-03-17T16:25:53.900Z,18.10
2023-03-17T16:29:41.026Z,18.10
2023-03-17T16:33:42.425Z,18.10
2023-03-17T16:37:27.935Z,18.10
2023-03-17T16:41:26.698Z,18.10
2023-03-17T16:45:29.023Z,18.10
2023-03-17T16:49:24.900Z,18.10
2023-03-17T16:53:10.614Z,18.10
2023-03-17T16:56:56.168Z,18.10
2023-03-17T17:00:41.736Z,18.10
2023-03-17T17:04:27.191Z,18.10
2023-03-17T17:08:12.435Z,18.10
2023-03-17T17:12:00.233Z,18.10
2023-03-17T17:15:46.280Z,18.10
2023-03-17T17:19:31.516Z,18.10
2023-03-17T17:23:21.560Z,18.10
2023-03-17T17:27:07.221Z,18.10
2023-03-17T17:30:54.348Z,18.00
2023-03-17T17:34:40.161Z,18.10
2023-03-17T17:38:29.458Z,18.10
2023-03-17T17:42:15.219Z,18.10
2023-03-17T17:46:00.965Z,18.10
2023-03-17T17:49:46.769Z,18.00
2023-03-17T17:53:32.862Z,18.00
2023-03-17T17:57:18.697Z,18.00
2023-03-17T18:01:06.240Z,18.00
2023-03-17T18:04:52.824Z,18.00
2023-03-17T18:08:39.444Z,18.00
2023-03-17T18:12:24.271Z,18.00
2023-03-17T18:16:14.250Z,18.10
2023-03-17T18:20:02.411Z,18.00
2023-03-17T18:23:51.514Z,18.00
2023-03-17T19:47:42.315Z,17.90
2023-03-17T19:51:29.303Z,17.90
2023-03-17T19:55:12.010Z,17.90
2023-03-17T19:58:57.851Z,17.90
2023-03-17T20:02:43.052Z,17.90
2023-03-17T20:06:28.810Z,17.90
2023-03-17T20:25:11.904Z,17.90
2023-03-17T20:39:09.768Z,17.90
2023-03-17T20:42:52.504Z,17.80
2023-03-17T21:28:21.561Z,17.80
2023-03-17T21:32:04.790Z,17.80
2023-03-17T21:35:47.210Z,17.80
2023-03-17T21:39:32.079Z,17.80
2023-03-17T21:43:16.975Z,17.80
2023-03-17T21:47:07.439Z,17.80
2023-03-17T21:50:52.262Z,17.80
2023-03-17T21:54:36.375Z,17.80
2023-03-17T21:58:21.670Z,17.80
2023-03-17T22:02:06.879Z,17.80
2023-03-17T22:05:52.458Z,17.80
2023-03-17T22:09:38.436Z,17.80
2023-03-17T22:13:24.043Z,17.80
2023-03-17T22:17:09.998Z,17.80
2023-03-17T22:20:59.255Z,17.80
2023-03-17T22:24:44.178Z,17.80
2023-03-17T22:28:28.880Z,17.80
2023-03-17T22:32:14.457Z,17.80
2023-03-17T22:35:59.466Z,17.80
2023-03-17T22:39:44.656Z,17.80
2023-03-17T22:43:29.677Z,17.80
2023-03-17T22:47:17.177Z,17.90
2023-03-17T22:51:07.245Z,17.80
2023-03-17T22:54:51.696Z,17.80
2023-03-17T22:58:37.462Z,17.80
2023-03-17T23:02:20.858Z,17.80
2023-03-17T23:06:06.611Z,17.80
2023-03-17T23:09:51.941Z,17.80
2023-03-17T23:13:36.641Z,17.80
2023-03-17T23:17:21.115Z,17.80
2023-03-17T23:21:08.485Z,17.80
2023-03-17T23:24:53.350Z,17.80
2023-03-17T23:28:35.062Z,17.80
2023-03-17T23:32:16.963Z,17.80
2023-03-17T23:35:58.715Z,17.80
2023-03-17T23:39:40.502Z,17.80
2023-03-17T23:43:22.661Z,17.80
2023-03-17T23:47:08.093Z,17.80
2023-03-17T23:50:57.363Z,17.80
2023-03-17T23:54:43.081Z,17.80
2023-03-17T23:58:28.604Z,17.80
